Time;durP1;ratioP1;P1;durP2;ratioP2;P2;SDS_P1;SDS_P2;PMS_P1;PMS_P2;Temp;Humidity;BMP_temperature;BMP_pressure;BME280_temperature;BME280_humidity;BME280_pressure;Samples;Min_cycle;Max_cycle;Signal;HPM_P1;HPM_P2
2024/02/04 00:00:27;;;;;;;18.83;5.47;;;10.30;99.90;;;;;;4970572;29;20035;-80
2024/02/04 00:02:52;;;;;;;23.95;5.57;;;10.30;99.90;;;;;;4971270;29;20035;-80
2024/02/04 00:05:18;;;;;;;22.17;5.38;;;10.30;99.90;;;;;;4972676;29;20388;-80
2024/02/04 00:07:44;;;;;;;17.98;5.50;;;10.40;99.90;;;;;;4971721;29;20023;-80
2024/02/04 00:10:11;;;;;;;14.65;4.18;;;11.30;99.90;;;;;;4971918;29;20086;-79
2024/02/04 00:12:36;;;;;;;12.80;4.20;;;10.40;99.90;;;;;;4972278;28;20038;-79
2024/02/04 00:15:04;;;;;;;22.58;6.15;;;10.50;99.90;;;;;;4971939;28;20476;-80
2024/02/04 00:17:32;;;;;;;16.42;4.32;;;;;;;;;;4971240;29;20026;-79
2024/02/04 00:20:05;;;;;;;11.10;3.42;;;10.40;99.90;;;;;;4970638;29;20082;-79
2024/02/04 00:22:33;;;;;;;15.35;4.85;;;10.40;99.90;;;;;;4971671;28;20059;-80
2024/02/04 00:25:04;;;;;;;12.55;4.03;;;10.50;99.90;;;;;;4972540;29;20020;-79
2024/02/04 00:27:33;;;;;;;20.40;4.40;;;10.40;99.90;;;;;;4971286;29;20023;-80
2024/02/04 00:29:59;;;;;;;15.80;4.90;;;10.40;99.90;;;;;;4971981;29;20027;-79
2024/02/04 00:32:26;;;;;;;14.38;4.00;;;10.40;99.90;;;;;;4970887;28;20059;-80
2024/02/04 00:34:52;;;;;;;17.23;5.03;;;10.40;99.90;;;;;;4971179;29;20050;-79
2024/02/04 00:37:18;;;;;;;20.95;4.90;;;10.30;99.90;;;;;;4970135;28;20031;-79
2024/02/04 00:39:43;;;;;;;19.40;4.43;;;10.80;99.90;;;;;;4970359;29;20368;-79
2024/02/04 00:42:10;;;;;;;20.83;4.50;;;;;;;;;;4955423;29;20035;-79
2024/02/04 00:44:36;;;;;;;18.92;4.72;;;10.30;99.90;;;;;;4970833;29;20038;-79
2024/02/04 00:47:02;;;;;;;18.85;4.63;;;10.20;99.90;;;;;;4970892;29;20023;-79
2024/02/04 00:49:27;;;;;;;18.92;4.68;;;10.20;99.90;;;;;;4972462;29;20031;-79
2024/02/04 00:51:53;;;;;;;12.93;4.88;;;10.20;99.90;;;;;;4972524;29;20407;-79
2024/02/04 00:54:19;;;;;;;29.15;5.07;;;10.20;99.90;;;;;;4970705;29;20024;-79
2024/02/04 00:56:45;;;;;;;13.80;3.97;;;10.20;99.90;;;;;;4969409;29;20024;-80
2024/02/04 00:59:11;;;;;;;13.27;4.10;;;10.20;99.90;;;;;;4970852;29;20135;-79
2024/02/04 01:01:37;;;;;;;18.35;4.50;;;10.10;99.90;;;;;;4970746;29;20019;-80
2024/02/04 01:04:03;;;;;;;17.02;4.00;;;10.20;99.90;;;;;;4968943;29;20038;-79
2024/02/04 01:06:29;;;;;;;19.23;4.05;;;10.10;99.90;;;;;;4968256;29;20090;-80
2024/02/04 01:08:56;;;;;;;13.23;3.90;;;10.10;99.90;;;;;;4969826;29;20015;-80
2024/02/04 01:11:22;;;;;;;20.48;3.75;;;10.10;99.90;;;;;;4953240;29;20039;-79
2024/02/04 01:13:48;;;;;;;13.93;3.95;;;;;;;;;;4969393;29;20024;-81
2024/02/04 01:16:13;;;;;;;15.73;4.22;;;10.10;99.90;;;;;;4968941;29;20497;-79
2024/02/04 01:18:39;;;;;;;15.25;2.97;;;10.10;99.90;;;;;;4968697;28;20020;-79
2024/02/04 01:21:05;;;;;;;8.27;2.53;;;10.10;99.90;;;;;;4969719;29;20051;-79
2024/02/04 01:23:31;;;;;;;17.10;3.10;;;10.30;99.90;;;;;;4965888;29;20043;-79
2024/02/04 01:25:57;;;;;;;10.00;3.15;;;10.10;99.90;;;;;;4960100;29;20082;-79
2024/02/04 01:28:22;;;;;;;12.70;2.67;;;10.10;99.90;;;;;;4963180;29;20031;-79
2024/02/04 01:30:48;;;;;;;14.63;3.83;;;10.10;99.90;;;;;;4960649;29;20486;-79
2024/02/04 01:33:14;;;;;;;15.05;3.22;;;10.10;99.90;;;;;;4961450;29;20028;-79
2024/02/04 01:35:39;;;;;;;14.93;3.00;;;10.10;99.90;;;;;;4960420;28;20391;-79
2024/02/04 01:38:05;;;;;;;10.57;3.22;;;10.10;99.90;;;;;;4962415;29;20527;-79
2024/02/04 01:40:31;;;;;;;9.70;2.78;;;10.10;99.90;;;;;;4961986;29;20162;-79
2024/02/04 01:42:57;;;;;;;16.17;3.88;;;10.10;99.90;;;;;;4960891;29;20043;-79
2024/02/04 01:45:22;;;;;;;13.32;3.72;;;10.00;99.90;;;;;;4963528;28;20027;-79
2024/02/04 01:47:49;;;;;;;11.02;2.30;;;10.00;99.90;;;;;;4964905;29;20116;-79
2024/02/04 01:50:16;;;;;;;10.35;3.45;;;10.00;99.90;;;;;;4964656;29;20118;-79
2024/02/04 01:52:43;;;;;;;7.70;2.40;;;9.90;99.90;;;;;;4964216;29;20118;-79
2024/02/04 01:55:09;;;;;;;8.77;2.05;;;9.90;99.90;;;;;;4964340;29;20026;-80
2024/02/04 01:57:35;;;;;;;10.95;2.28;;;9.90;99.90;;;;;;4949087;29;20032;-79
2024/02/04 02:00:02;;;;;;;7.10;2.15;;;9.90;99.90;;;;;;4964818;29;20027;-80
2024/02/04 02:02:28;;;;;;;8.93;1.92;;;10.00;99.90;;;;;;4964045;29;20042;-79
2024/02/04 02:04:54;;;;;;;8.45;1.90;;;9.90;99.90;;;;;;4972329;29;20031;-79
2024/02/04 02:07:21;;;;;;;13.77;2.08;;;9.90;99.90;;;;;;4965351;29;20505;-79
2024/02/04 02:09:47;;;;;;;12.10;2.90;;;9.90;99.90;;;;;;4964478;29;20443;-79
2024/02/04 02:12:17;;;;;;;9.50;3.00;;;9.90;99.90;;;;;;4964429;29;20019;-79
2024/02/04 02:14:59;;;;;;;11.45;3.20;;;9.90;99.90;;;;;;4964591;29;20035;-79
2024/02/04 02:17:38;;;;;;;13.85;3.88;;;9.90;99.90;;;;;;4948808;29;20387;-79
2024/02/04 02:20:18;;;;;;;11.90;3.67;;;11.30;99.90;;;;;;4964610;28;20031;-79
2024/02/04 02:23:00;;;;;;;14.55;3.42;;;9.80;99.90;;;;;;4965267;29;20102;-79
2024/02/04 02:25:27;;;;;;;10.90;3.85;;;9.80;99.90;;;;;;4967202;29;20034;-79
2024/02/04 02:27:53;;;;;;;16.20;3.40;;;9.80;99.90;;;;;;4965640;29;20023;-79
2024/02/04 02:30:19;;;;;;;16.83;5.80;;;9.80;99.90;;;;;;4965891;29;20387;-79
2024/02/04 02:32:47;;;;;;;12.48;4.78;;;9.80;99.90;;;;;;4966191;29;20035;-80
2024/02/04 02:35:17;;;;;;;19.33;4.72;;;9.70;99.90;;;;;;4965830;29;20031;-79
2024/02/04 02:38:11;;;;;;;20.05;4.65;;;9.80;99.90;;;;;;4963238;29;20030;-79
2024/02/04 02:40:51;;;;;;;16.85;5.68;;;9.80;99.90;;;;;;4964218;29;20090;-79
2024/02/04 02:43:18;;;;;;;16.50;6.22;;;9.80;99.90;;;;;;4964871;29;20027;-79
2024/02/04 02:45:45;;;;;;;22.65;6.30;;;9.80;99.90;;;;;;4965282;29;20086;-80
2024/02/04 02:48:11;;;;;;;15.85;5.00;;;9.80;99.90;;;;;;4965867;29;20058;-79
2024/02/04 02:50:37;;;;;;;21.45;6.88;;;9.80;99.90;;;;;;4963869;29;20095;-79
2024/02/04 02:53:04;;;;;;;25.15;6.55;;;9.80;99.90;;;;;;4965642;28;20027;-80
2024/02/04 02:55:29;;;;;;;16.63;5.13;;;9.80;99.90;;;;;;4965924;28;20078;-79
2024/02/04 02:57:55;;;;;;;15.75;4.32;;;9.90;99.90;;;;;;4966824;29;20034;-80
2024/02/04 03:00:21;;;;;;;19.05;5.40;;;9.80;99.90;;;;;;4965418;29;20122;-79
2024/02/04 03:02:47;;;;;;;14.75;4.55;;;9.80;99.90;;;;;;4965307;28;20031;-79
2024/02/04 03:05:15;;;;;;;14.80;3.53;;;9.80;99.90;;;;;;4964674;29;20114;-79
2024/02/04 03:07:40;;;;;;;15.15;3.30;;;9.80;99.90;;;;;;4964797;29;20035;-79
2024/02/04 03:10:06;;;;;;;12.55;3.35;;;9.80;99.90;;;;;;4966879;29;20024;-79
2024/02/04 03:12:32;;;;;;;19.80;3.90;;;9.80;99.90;;;;;;4965066;29;20019;-79
2024/02/04 03:14:57;;;;;;;10.38;2.25;;;9.70;99.90;;;;;;4964163;29;20053;-79
2024/02/04 03:17:23;;;;;;;11.23;3.03;;;9.60;99.90;;;;;;4964884;29;20451;-79
2024/02/04 03:19:51;;;;;;;3.08;1.02;;;9.60;99.90;;;;;;4962874;29;20054;-79
2024/02/04 03:22:17;;;;;;;4.65;1.23;;;9.60;99.90;;;;;;4964897;29;20442;-81
2024/02/04 03:24:43;;;;;;;10.85;0.73;;;9.60;99.90;;;;;;4964853;29;20047;-79
2024/02/04 03:27:09;;;;;;;9.23;0.60;;;9.50;99.90;;;;;;4962908;29;20027;-79
2024/02/04 03:29:34;;;;;;;7.82;1.02;;;9.60;99.90;;;;;;4962603;29;20077;-79
2024/02/04 03:32:02;;;;;;;8.43;0.70;;;9.50;99.90;;;;;;4962684;29;20475;-80
2024/02/04 03:34:27;;;;;;;5.43;0.45;;;9.40;99.90;;;;;;4963180;29;20019;-79
2024/02/04 03:36:53;;;;;;;3.65;0.60;;;9.50;99.90;;;;;;4965345;29;20067;-79
2024/02/04 03:39:19;;;;;;;12.23;2.33;;;9.40;99.90;;;;;;4961681;29;20023;-79
2024/02/04 03:41:44;;;;;;;6.78;0.60;;;9.50;99.90;;;;;;4961129;29;20019;-79
2024/02/04 03:44:10;;;;;;;8.77;1.00;;;9.50;99.90;;;;;;4961811;29;20090;-79
2024/02/04 03:46:39;;;;;;;7.68;0.57;;;9.40;99.90;;;;;;4963950;29;20047;-79
2024/02/04 03:49:06;;;;;;;10.52;1.77;;;9.40;99.90;;;;;;4962219;29;20024;-79
2024/02/04 03:51:32;;;;;;;7.97;1.33;;;9.40;99.90;;;;;;4962010;29;20030;-79
2024/02/04 03:53:57;;;;;;;9.98;1.33;;;9.50;99.90;;;;;;4960557;29;20027;-79
2024/02/04 03:56:23;;;;;;;12.93;1.85;;;9.40;99.90;;;;;;4961743;29;20100;-79
2024/02/04 03:58:50;;;;;;;11.70;1.52;;;9.40;99.90;;;;;;4959890;29;20475;-79
2024/02/04 04:01:16;;;;;;;13.57;1.95;;;9.40;99.90;;;;;;4960094;29;20114;-79
2024/02/04 04:03:43;;;;;;;17.13;2.00;;;9.50;99.90;;;;;;4962659;29;20042;-79
2024/02/04 04:06:10;;;;;;;9.18;2.28;;;9.50;99.90;;;;;;4960326;29;20066;-79
2024/02/04 04:08:36;;;;;;;12.68;1.45;;;9.50;99.90;;;;;;4960751;28;20063;-78
2024/02/04 04:11:02;;;;;;;14.18;2.20;;;9.50;99.90;;;;;;4959794;29;20043;-79
2024/02/04 04:13:28;;;;;;;7.70;1.27;;;9.50;99.90;;;;;;4962749;29;20046;-81
2024/02/04 04:15:54;;;;;;;7.85;1.50;;;9.40;99.90;;;;;;4960788;28;20498;-79
2024/02/04 04:18:20;;;;;;;5.22;0.98;;;9.50;99.90;;;;;;4959695;28;20023;-79
2024/02/04 04:20:45;;;;;;;6.57;1.40;;;9.70;99.90;;;;;;4959212;29;20034;-79
2024/02/04 04:23:12;;;;;;;9.02;0.88;;;9.40;99.90;;;;;;4959203;29;20028;-79
2024/02/04 04:25:38;;;;;;;8.23;1.90;;;9.40;99.90;;;;;;4959222;29;20032;-80
2024/02/04 04:28:04;;;;;;;13.80;1.58;;;9.40;99.90;;;;;;4960620;29;20027;-79
2024/02/04 04:30:29;;;;;;;5.97;0.50;;;9.40;99.90;;;;;;4958805;28;20046;-79
2024/02/04 04:32:56;;;;;;;9.45;0.50;;;10.00;99.90;;;;;;4959412;29;20042;-78
2024/02/04 04:35:22;;;;;;;5.97;0.60;;;9.30;99.90;;;;;;4961350;29;20483;-79
2024/02/04 04:37:47;;;;;;;8.27;0.63;;;9.30;99.90;;;;;;4961886;29;20031;-79
2024/02/04 04:40:13;;;;;;;7.38;0.98;;;9.20;99.90;;;;;;4960998;29;20019;-79
2024/02/04 04:42:39;;;;;;;8.15;1.13;;;9.30;99.90;;;;;;4961025;29;20599;-79
2024/02/04 04:45:07;;;;;;;8.68;0.82;;;9.20;99.90;;;;;;4959432;29;20031;-79
2024/02/04 04:47:33;;;;;;;16.63;1.50;;;9.20;99.90;;;;;;4961207;29;20031;-82
2024/02/04 04:49:59;;;;;;;6.93;0.70;;;9.20;99.90;;;;;;4959569;29;20046;-83
2024/02/04 04:52:25;;;;;;;11.07;1.67;;;9.20;99.90;;;;;;4959458;29;20028;-82
2024/02/04 04:54:51;;;;;;;8.25;1.90;;;10.00;99.90;;;;;;4959732;29;20023;-82
2024/02/04 04:57:16;;;;;;;10.90;2.70;;;9.20;99.90;;;;;;4958997;29;20023;-82
2024/02/04 04:59:43;;;;;;;8.32;1.77;;;;;;;;;;4959401;29;20082;-82
2024/02/04 05:02:10;;;;;;;13.80;2.17;;;9.20;99.90;;;;;;4959106;29;20023;-82
2024/02/04 05:04:36;;;;;;;10.50;2.03;;;9.20;99.90;;;;;;4960196;29;20031;-82
2024/02/04 05:07:02;;;;;;;8.57;2.40;;;9.20;99.90;;;;;;4958495;29;20164;-81
2024/02/04 05:09:28;;;;;;;12.40;2.25;;;;;;;;;;4959494;29;20099;-83
2024/02/04 05:11:54;;;;;;;22.17;3.58;;;;;;;;;;4960489;28;20027;-82
2024/02/04 05:14:20;;;;;;;23.20;3.80;;;9.30;99.90;;;;;;4960127;28;20035;-82
2024/02/04 05:16:45;;;;;;;19.67;2.85;;;9.30;99.90;;;;;;4958617;29;20023;-83
2024/02/04 05:19:12;;;;;;;12.88;2.90;;;9.30;99.90;;;;;;4958697;28;20591;-82
2024/02/04 05:21:40;;;;;;;13.30;2.50;;;9.30;99.90;;;;;;4958679;29;20395;-82
2024/02/04 05:24:06;;;;;;;15.10;2.67;;;9.40;99.90;;;;;;4958389;29;20047;-83
2024/02/04 05:26:32;;;;;;;9.93;2.30;;;9.40;99.90;;;;;;4958594;29;20062;-83
2024/02/04 05:28:57;;;;;;;11.55;2.45;;;9.40;99.90;;;;;;4959113;29;20055;-83
2024/02/04 05:31:23;;;;;;;7.30;2.08;;;;;;;;;;4959145;29;20024;-84
2024/02/04 05:33:51;;;;;;;13.88;2.33;;;9.30;99.90;;;;;;4958915;29;20043;-83
2024/02/04 05:36:17;;;;;;;10.07;1.70;;;9.30;99.90;;;;;;4958524;28;20027;-83
2024/02/04 05:38:44;;;;;;;10.73;1.65;;;9.30;99.90;;;;;;4958694;29;20494;-83
2024/02/04 05:41:10;;;;;;;10.48;2.05;;;;;;;;;;4958391;29;20499;-83
2024/02/04 05:43:36;;;;;;;7.15;1.20;;;9.30;99.90;;;;;;4958918;29;20462;-83
2024/02/04 05:46:02;;;;;;;7.13;1.95;;;9.30;99.90;;;;;;4958431;28;20106;-84
2024/02/04 05:48:28;;;;;;;8.18;2.38;;;;;;;;;;4958828;29;20518;-84
2024/02/04 05:50:54;;;;;;;9.10;2.00;;;9.30;99.90;;;;;;4958871;29;20034;-83
2024/02/04 05:53:19;;;;;;;9.27;1.05;;;9.30;99.90;;;;;;4958805;29;20395;-82
2024/02/04 05:55:46;;;;;;;13.70;2.20;;;9.30;99.90;;;;;;4958507;29;20034;-82
2024/02/04 05:58:13;;;;;;;9.55;2.40;;;9.30;99.90;;;;;;4958440;29;20502;-83
2024/02/04 06:00:40;;;;;;;12.60;3.35;;;9.30;99.90;;;;;;4958879;29;20030;-83
2024/02/04 06:03:06;;;;;;;8.60;2.13;;;9.40;99.90;;;;;;4959127;29;20023;-83
2024/02/04 06:05:32;;;;;;;10.68;2.90;;;;;;;;;;4958149;29;20035;-82
2024/02/04 06:07:58;;;;;;;11.55;3.40;;;;;;;;;;4958371;29;20039;-84
2024/02/04 06:10:24;;;;;;;9.88;3.05;;;9.30;99.90;;;;;;4959462;29;20031;-84
2024/02/04 06:12:50;;;;;;;15.90;4.10;;;;;;;;;;4959057;29;20019;-82
2024/02/04 06:15:16;;;;;;;12.18;4.35;;;9.40;99.90;;;;;;4958882;28;20031;-82
2024/02/04 06:17:42;;;;;;;19.00;4.95;;;9.40;99.90;;;;;;4958641;29;20390;-83
2024/02/04 06:20:08;;;;;;;11.27;4.22;;;9.60;99.90;;;;;;4958398;28;20032;-83
2024/02/04 06:22:35;;;;;;;12.90;4.38;;;9.40;99.90;;;;;;4958700;29;20505;-83
2024/02/04 06:25:01;;;;;;;19.02;6.32;;;;;;;;;;4958400;29;20027;-83
2024/02/04 06:27:27;;;;;;;17.42;4.75;;;;;;;;;;4958924;29;20046;-84
2024/02/04 06:29:53;;;;;;;14.20;6.00;;;9.50;99.90;;;;;;4959105;28;20031;-82
2024/02/04 06:32:21;;;;;;;14.65;5.68;;;9.50;99.90;;;;;;4963201;29;20023;-82
2024/02/04 06:34:48;;;;;;;22.55;6.60;;;12.10;99.90;;;;;;4962382;29;20032;-82
2024/02/04 06:37:13;;;;;;;20.63;6.38;;;9.50;99.90;;;;;;4962566;28;20025;-83
2024/02/04 06:39:39;;;;;;;10.63;4.80;;;;;;;;;;4962240;29;20086;-82
2024/02/04 06:42:05;;;;;;;16.33;5.80;;;9.50;99.90;;;;;;4962384;29;20030;-83
2024/02/04 06:44:31;;;;;;;13.20;4.68;;;9.60;99.90;;;;;;4961890;29;20031;-82
2024/02/04 06:46:57;;;;;;;12.77;5.53;;;9.60;99.90;;;;;;4961375;29;20519;-83
2024/02/04 06:49:22;;;;;;;17.85;4.78;;;9.60;99.90;;;;;;4962678;29;20058;-83
2024/02/04 06:51:48;;;;;;;20.45;4.25;;;9.70;99.90;;;;;;4961749;29;20047;-82
2024/02/04 06:54:14;;;;;;;14.00;5.20;;;10.40;99.90;;;;;;4963600;29;20388;-82
2024/02/04 06:56:43;;;;;;;12.13;5.10;;;9.70;99.90;;;;;;4962759;28;20142;-82
2024/02/04 06:59:09;;;;;;;15.05;3.97;;;9.70;99.90;;;;;;4961713;29;20020;-82
2024/02/04 07:01:35;;;;;;;11.32;4.47;;;9.70;99.90;;;;;;4961808;29;20030;-83
2024/02/04 07:04:00;;;;;;;21.42;6.35;;;9.70;99.90;;;;;;4962700;29;20114;-83
2024/02/04 07:06:26;;;;;;;14.23;5.75;;;9.70;99.90;;;;;;4962066;29;20094;-83
2024/02/04 07:08:52;;;;;;;24.33;6.75;;;;;;;;;;4964370;29;20027;-82
2024/02/04 07:11:18;;;;;;;15.60;6.78;;;;;;;;;;4963233;28;20031;-82
2024/02/04 07:13:44;;;;;;;16.70;4.78;;;9.70;99.90;;;;;;4961960;29;20034;-83
2024/02/04 07:16:10;;;;;;;15.48;5.32;;;;;;;;;;4964027;29;20032;-84
2024/02/04 07:18:36;;;;;;;17.20;4.85;;;9.70;99.90;;;;;;4961437;29;20024;-83
2024/02/04 07:21:01;;;;;;;14.75;4.47;;;9.70;99.90;;;;;;4960986;29;20027;-84
2024/02/04 07:23:27;;;;;;;12.38;4.00;;;9.70;99.90;;;;;;4960752;28;20145;-85
2024/02/04 07:25:52;;;;;;;14.98;3.92;;;9.80;99.90;;;;;;4961065;29;20126;-83
2024/02/04 07:28:18;;;;;;;12.32;3.40;;;9.80;99.90;;;;;;4960474;29;20032;-83
2024/02/04 07:30:43;;;;;;;9.80;3.72;;;9.80;99.90;;;;;;4960230;29;20031;-82
2024/02/04 07:33:09;;;;;;;13.40;3.35;;;10.00;99.90;;;;;;4960320;29;20093;-83
2024/02/04 07:35:35;;;;;;;8.20;3.05;;;10.10;99.90;;;;;;4961748;29;20027;-83
2024/02/04 07:38:01;;;;;;;14.65;3.65;;;;;;;;;;4961252;29;20061;-83
2024/02/04 07:40:27;;;;;;;9.02;4.07;;;;;;;;;;4960382;29;20043;-86
2024/02/04 07:42:54;;;;;;;13.48;3.65;;;9.90;99.90;;;;;;4960035;28;20038;-83
2024/02/04 07:45:19;;;;;;;12.65;3.88;;;9.90;99.90;;;;;;4959908;29;20027;-82
2024/02/04 07:47:45;;;;;;;8.60;3.63;;;9.90;99.90;;;;;;4960381;29;20037;-82
2024/02/04 07:50:11;;;;;;;8.52;2.60;;;9.90;99.90;;;;;;4960346;29;20043;-82
2024/02/04 07:52:36;;;;;;;12.70;3.20;;;9.90;99.90;;;;;;4962277;29;20020;-82
2024/02/04 07:55:02;;;;;;;10.07;2.78;;;9.90;99.90;;;;;;4960389;28;20019;-83
2024/02/04 07:57:27;;;;;;;9.85;2.25;;;9.90;99.90;;;;;;4961484;28;20027;-80
2024/02/04 07:59:53;;;;;;;7.90;1.50;;;9.90;99.90;;;;;;4962343;29;20117;-81
2024/02/04 08:02:19;;;;;;;16.15;2.08;;;9.90;99.90;;;;;;4962037;29;20522;-80
2024/02/04 08:04:44;;;;;;;6.18;1.55;;;10.00;99.90;;;;;;4962939;29;20031;-80
2024/02/04 08:07:10;;;;;;;8.07;1.48;;;10.00;99.90;;;;;;4961996;29;20062;-79
2024/02/04 08:09:36;;;;;;;6.13;1.02;;;10.00;99.90;;;;;;4960652;29;20023;-82
2024/02/04 08:12:01;;;;;;;5.82;1.35;;;10.40;99.90;;;;;;4960240;29;20047;-81
2024/02/04 08:14:27;;;;;;;11.38;1.58;;;10.00;99.90;;;;;;4961508;29;20105;-80
2024/02/04 08:16:52;;;;;;;6.20;0.63;;;10.10;99.90;;;;;;4960643;29;20365;-82
2024/02/04 08:19:18;;;;;;;4.22;0.40;;;10.00;99.90;;;;;;4959698;29;20118;-79
2024/02/04 08:21:44;;;;;;;3.55;1.17;;;10.00;99.90;;;;;;4961220;29;20023;-82
2024/02/04 08:24:09;;;;;;;2.22;0.70;;;10.00;99.90;;;;;;4959620;28;20099;-81
2024/02/04 08:26:35;;;;;;;7.53;2.13;;;10.00;99.90;;;;;;4959803;28;20101;-79
2024/02/04 08:29:01;;;;;;;2.58;0.47;;;10.10;99.90;;;;;;4960071;29;20431;-81
2024/02/04 08:31:26;;;;;;;2.90;0.43;;;10.00;99.90;;;;;;4960486;29;20487;-82
2024/02/04 08:33:52;;;;;;;2.05;0.70;;;10.20;99.90;;;;;;4961192;29;20091;-82
2024/02/04 08:36:19;;;;;;;3.75;1.02;;;;;;;;;;4962063;29;20044;-84
2024/02/04 08:38:45;;;;;;;8.27;1.48;;;;;;;;;;4960428;29;20054;-82
2024/02/04 08:41:11;;;;;;;4.10;1.27;;;10.00;99.90;;;;;;4960227;29;20031;-80
2024/02/04 08:43:37;;;;;;;4.05;1.95;;;10.00;99.90;;;;;;4961209;29;20037;-82
2024/02/04 08:46:03;;;;;;;11.88;2.40;;;;;;;;;;4963226;29;20038;-80
2024/02/04 08:48:28;;;;;;;10.05;2.50;;;10.10;99.90;;;;;;4961672;29;20027;-80
2024/02/04 08:50:54;;;;;;;11.10;1.98;;;10.10;99.90;;;;;;4960801;29;20094;-81
2024/02/04 08:53:23;;;;;;;5.88;2.50;;;10.10;99.90;;;;;;4960240;28;20027;-81
2024/02/04 08:55:50;;;;;;;5.07;2.00;;;10.20;99.90;;;;;;4960579;28;20027;-81
2024/02/04 08:58:16;;;;;;;7.75;2.53;;;10.10;99.90;;;;;;4960853;28;20026;-81
2024/02/04 09:00:42;;;;;;;9.43;1.67;;;;;;;;;;4958467;29;20027;-78
2024/02/04 09:03:07;;;;;;;6.22;1.90;;;10.30;99.90;;;;;;4956917;28;20050;-78
2024/02/04 09:05:33;;;;;;;4.90;1.25;;;10.30;99.90;;;;;;4956727;29;20027;-79
2024/02/04 09:07:58;;;;;;;8.23;1.95;;;10.30;99.90;;;;;;4955764;29;20086;-78
2024/02/04 09:10:24;;;;;;;3.30;1.05;;;10.30;99.90;;;;;;4955344;29;20038;-79
2024/02/04 09:12:50;;;;;;;8.48;1.27;;;10.40;99.90;;;;;;4956177;29;20055;-79
2024/02/04 09:15:15;;;;;;;3.47;0.77;;;10.40;99.90;;;;;;4956478;29;20566;-79
2024/02/04 09:17:41;;;;;;;5.65;0.80;;;10.40;99.90;;;;;;4955766;28;20035;-79
2024/02/04 09:20:07;;;;;;;6.07;1.02;;;10.50;99.90;;;;;;4956504;29;20054;-78
2024/02/04 09:22:33;;;;;;;9.60;1.02;;;10.50;99.90;;;;;;4955459;29;20031;-79
2024/02/04 09:24:59;;;;;;;4.05;0.45;;;10.50;99.90;;;;;;4956214;29;20082;-79
2024/02/04 09:27:25;;;;;;;3.55;0.55;;;10.50;99.90;;;;;;4956332;29;20114;-78
2024/02/04 09:29:51;;;;;;;11.88;0.90;;;10.60;99.90;;;;;;4956813;29;20023;-79
2024/02/04 09:32:17;;;;;;;5.28;0.40;;;10.60;99.90;;;;;;4957300;29;20023;-79
2024/02/04 09:34:43;;;;;;;6.45;0.50;;;10.50;99.90;;;;;;4957662;29;20107;-79
2024/02/04 09:37:09;;;;;;;3.53;0.15;;;10.70;99.90;;;;;;4956446;28;20026;-79
2024/02/04 09:39:34;;;;;;;6.50;0.68;;;10.60;99.90;;;;;;4955681;28;20476;-77
2024/02/04 09:42:00;;;;;;;5.65;0.80;;;10.70;99.90;;;;;;4954079;29;20059;-77
2024/02/04 09:44:26;;;;;;;3.40;0.15;;;10.70;99.90;;;;;;4954159;29;20041;-77
2024/02/04 09:46:54;;;;;;;2.30;0.40;;;10.80;99.90;;;;;;4955299;29;20396;-77
2024/02/04 09:49:20;;;;;;;3.83;1.05;;;10.70;99.90;;;;;;4955400;29;20033;-77
2024/02/04 09:51:47;;;;;;;2.60;0.20;;;10.80;99.90;;;;;;4955293;29;20512;-78
2024/02/04 09:54:16;;;;;;;4.05;0.82;;;10.80;99.90;;;;;;4955251;29;20050;-78
2024/02/04 09:56:42;;;;;;;5.93;0.13;;;10.80;99.90;;;;;;4955132;29;20027;-78
2024/02/04 09:59:07;;;;;;;17.88;1.27;;;10.80;99.90;;;;;;4954055;29;20031;-77
2024/02/04 10:01:33;;;;;;;4.28;0.95;;;10.80;99.90;;;;;;4953992;29;20387;-77
2024/02/04 10:03:59;;;;;;;2.58;0.13;;;10.80;99.90;;;;;;4954019;29;20435;-77
2024/02/04 10:06:25;;;;;;;9.65;0.10;;;10.80;99.90;;;;;;4958234;28;20106;-77
2024/02/04 10:08:51;;;;;;;0.55;0.13;;;10.80;99.90;;;;;;4959165;29;20399;-78
2024/02/04 10:11:16;;;;;;;3.83;0.10;;;10.90;99.90;;;;;;4959437;29;20023;-79
2024/02/04 10:13:47;;;;;;;0.90;0.10;;;10.90;99.90;;;;;;4957546;29;20065;-77
2024/02/04 10:16:17;;;;;;;3.35;0.35;;;10.90;99.90;;;;;;4958670;29;20388;-76
2024/02/04 10:18:47;;;;;;;2.05;0.30;;;11.00;99.90;;;;;;4958814;29;20106;-77
2024/02/04 10:21:17;;;;;;;2.40;0.10;;;10.90;99.90;;;;;;4958564;29;20027;-77
2024/02/04 10:23:43;;;;;;;4.32;0.15;;;10.90;99.90;;;;;;4958661;29;20503;-77
2024/02/04 10:26:09;;;;;;;1.63;0.08;;;10.90;99.90;;;;;;4957388;29;20062;-77
2024/02/04 10:28:36;;;;;;;4.85;0.10;;;11.00;99.90;;;;;;4958419;29;20484;-77
2024/02/04 10:31:02;;;;;;;2.38;0.00;;;11.00;99.90;;;;;;4957436;28;20512;-77
2024/02/04 10:33:31;;;;;;;0.05;0.00;;;11.10;99.90;;;;;;4958403;29;20024;-77
2024/02/04 10:35:56;;;;;;;0.10;0.00;;;11.10;99.90;;;;;;4957483;29;20023;-77
2024/02/04 10:38:22;;;;;;;1.55;0.10;;;11.20;99.90;;;;;;4958707;29;20024;-76
2024/02/04 10:40:51;;;;;;;1.25;0.30;;;11.20;99.90;;;;;;4957580;29;20078;-79
2024/02/04 10:43:17;;;;;;;0.10;0.00;;;11.20;99.90;;;;;;4961633;29;20118;-77
2024/02/04 10:45:44;;;;;;;0.32;0.17;;;11.20;99.90;;;;;;4958631;29;20156;-77
2024/02/04 10:48:15;;;;;;;2.15;0.00;;;11.20;99.90;;;;;;4958368;29;20034;-76
2024/02/04 10:50:45;;;;;;;0.82;0.15;;;11.20;99.90;;;;;;4959648;29;20046;-78
2024/02/04 10:53:18;;;;;;;0.57;0.15;;;11.20;99.90;;;;;;4959258;29;20051;-78
2024/02/04 10:55:46;;;;;;;0.43;0.00;;;11.20;99.90;;;;;;4957324;29;20020;-78
2024/02/04 10:58:13;;;;;;;0.50;0.00;;;11.20;99.90;;;;;;4958997;29;20023;-78
2024/02/04 11:00:44;;;;;;;0.40;0.00;;;11.10;99.90;;;;;;4957771;29;20081;-78
2024/02/04 11:03:11;;;;;;;0.30;0.00;;;11.30;99.90;;;;;;4957583;29;20031;-78
2024/02/04 11:05:38;;;;;;;0.20;0.00;;;;;;;;;;4957426;29;20118;-78
2024/02/04 11:08:04;;;;;;;0.00;0.00;;;11.10;99.90;;;;;;4957896;29;20504;-78
2024/02/04 11:10:31;;;;;;;0.60;0.00;;;11.00;99.90;;;;;;4957929;29;20034;-78
2024/02/04 11:12:59;;;;;;;1.67;0.03;;;10.80;99.90;;;;;;4959163;29;20027;-78
2024/02/04 11:15:30;;;;;;;7.13;0.20;;;10.90;99.90;;;;;;4957686;29;20028;-78
2024/02/04 11:18:20;;;;;;;0.90;0.00;;;10.70;99.90;;;;;;4957997;28;20047;-78
2024/02/04 11:21:09;;;;;;;1.33;0.00;;;10.70;99.90;;;;;;4959224;29;20480;-78
2024/02/04 11:24:15;;;;;;;1.30;0.25;;;10.60;99.90;;;;;;4958543;29;20031;-78
2024/02/04 11:26:42;;;;;;;6.43;0.10;;;10.70;99.90;;;;;;4957228;29;20032;-78
2024/02/04 11:29:09;;;;;;;0.35;0.00;;;10.70;99.90;;;;;;4958338;29;20027;-77
2024/02/04 11:31:39;;;;;;;2.70;0.15;;;;;;;;;;4957420;29;20035;-76
2024/02/04 11:34:06;;;;;;;3.50;0.35;;;10.70;99.90;;;;;;4957516;29;20027;-76
2024/02/04 11:36:39;;;;;;;1.13;0.10;;;11.80;99.90;;;;;;4958155;29;20031;-77
2024/02/04 11:39:14;;;;;;;4.28;0.75;;;10.70;99.90;;;;;;4957788;29;20043;-77
2024/02/04 11:41:49;;;;;;;7.85;0.63;;;10.70;99.90;;;;;;4956362;29;20052;-76
2024/02/04 11:44:23;;;;;;;6.13;0.47;;;10.70;99.90;;;;;;4957745;29;20027;-77
2024/02/04 11:46:49;;;;;;;1.52;0.60;;;10.80;99.90;;;;;;4956813;29;20106;-76
2024/02/04 11:49:25;;;;;;;3.85;1.00;;;10.80;99.90;;;;;;4956431;29;20027;-76
2024/02/04 11:51:51;;;;;;;7.72;0.77;;;10.80;99.90;;;;;;4956144;29;20034;-76
2024/02/04 11:54:20;;;;;;;4.05;0.47;;;10.90;99.90;;;;;;4957540;29;20102;-78
2024/02/04 11:56:52;;;;;;;3.50;0.38;;;10.90;99.90;;;;;;4956858;29;20102;-79
2024/02/04 11:59:20;;;;;;;1.13;0.10;;;10.90;99.90;;;;;;4956609;28;20031;-76
2024/02/04 12:01:47;;;;;;;5.50;0.10;;;10.90;99.90;;;;;;4955831;29;20555;-77
2024/02/04 12:04:15;;;;;;;1.92;0.20;;;11.00;99.90;;;;;;4957495;29;20419;-77
2024/02/04 12:06:41;;;;;;;3.60;0.15;;;11.10;99.90;;;;;;4955978;29;20069;-76
2024/02/04 12:09:11;;;;;;;1.73;0.00;;;11.10;99.90;;;;;;4957764;28;20086;-79
2024/02/04 12:11:41;;;;;;;4.65;0.00;;;11.20;99.90;;;;;;4956651;29;20019;-79
2024/02/04 12:14:07;;;;;;;5.05;0.17;;;11.20;99.90;;;;;;4956649;29;20031;-78
2024/02/04 12:16:35;;;;;;;2.67;0.10;;;11.20;99.90;;;;;;4957543;29;20023;-78
2024/02/04 12:19:04;;;;;;;6.00;0.43;;;11.30;99.90;;;;;;4955905;29;20015;-79
2024/02/04 12:21:31;;;;;;;10.00;0.47;;;11.20;99.90;;;;;;4958467;29;20299;-78
2024/02/04 12:23:58;;;;;;;8.82;0.10;;;11.30;99.90;;;;;;4956443;29;20019;-76
2024/02/04 12:26:23;;;;;;;1.38;0.00;;;11.20;99.90;;;;;;4955623;29;20027;-76
2024/02/04 12:28:50;;;;;;;10.73;0.35;;;11.30;99.90;;;;;;4957250;28;20027;-77
2024/02/04 12:31:31;;;;;;;4.50;0.00;;;11.30;99.90;;;;;;4956980;29;20031;-77
2024/02/04 12:33:59;;;;;;;2.65;0.73;;;11.30;99.90;;;;;;4956108;29;20030;-77
2024/02/04 12:36:29;;;;;;;2.30;0.00;;;11.40;99.90;;;;;;4955503;29;20118;-76
2024/02/04 12:38:56;;;;;;;1.92;0.03;;;11.40;99.90;;;;;;4955560;29;20030;-77
2024/02/04 12:41:23;;;;;;;6.78;0.35;;;11.50;99.90;;;;;;4955893;29;20031;-77
2024/02/04 12:43:58;;;;;;;3.92;0.00;;;12.30;99.90;;;;;;4956921;29;20030;-77
2024/02/04 12:46:24;;;;;;;0.90;0.00;;;11.40;99.90;;;;;;4956453;29;20032;-77
2024/02/04 12:48:58;;;;;;;2.03;0.13;;;11.40;99.90;;;;;;4956919;29;20031;-77
2024/02/04 12:51:31;;;;;;;3.50;0.00;;;11.40;99.90;;;;;;4955486;29;20174;-77
2024/02/04 12:54:09;;;;;;;5.22;0.00;;;11.30;99.90;;;;;;4956786;29;20102;-77